Weather at Whitfords Airport

Public forecast

Using degrees Fahrenheit for public forecast. Weather courtesy of forecast.io.

Closest aviation weather report (METAR) to Whitfords Airport

Closest report is Oswego County Airport, 17.5 nm (32.5 km) NNE. Retrieved 2020/11/23 18:34 UTC (0 seconds ago):

KFZY 231834Z AUTO 29016G24KT 10SM SCT027 BKN048 OVC080 06/M01 A3006 RMK AO2 T00561006

Closest aviation forecast (TAF) to Whitfords Airport

Closest forecast is Syracuse Hancock International Airport, 19.0 nm (35.3 km) E. Retrieved 2020/11/23 18:42 UTC (0 seconds ago):

TAF KSYR 231741Z 2318/2418 27014G22KT P6SM -SHRA SCT018 BKN025 FM232300 28009KT P6SM SCT028 OVC035 FM240300 30008KT 6SM -SHRASN BR OVC022 TEMPO 2403/2407 3SM -SHSN BR BKN015 FM240700 31008KT 6SM -SHSN OVC018 FM241400 32008KT P6SM BKN026 FM241600 32006KT P6SM FEW045 SCT070